Time;durP1;ratioP1;P1;durP2;ratioP2;P2;SDS_P1;SDS_P2;PMS_P1;PMS_P2;Temp;Humidity;BMP_temperature;BMP_pressure;BME280_temperature;BME280_humidity;BME280_pressure;Samples;Min_cycle;Max_cycle;Signal;HPM_P1;HPM_P2
2022/04/18 00:01:50;;;;;;;12.05;9.10;;;;;;;10.19;50.68;101916.25;5022802;28;20538;-91
2022/04/18 00:04:17;;;;;;;13.75;8.90;;;;;;;10.17;51.14;101916.31;5021457;28;20029;-91
2022/04/18 00:06:42;;;;;;;14.02;9.40;;;;;;;10.19;51.33;101913.63;5037758;28;20037;-90
2022/04/18 00:09:07;;;;;;;11.88;8.25;;;;;;;10.00;48.13;101909.63;5023392;28;20424;-91
2022/04/18 00:11:33;;;;;;;10.15;7.80;;;;;;;9.87;49.47;101909.88;5039734;28;20091;-91
2022/04/18 00:13:59;;;;;;;10.10;7.30;;;;;;;9.84;50.44;101907.31;5025375;28;20029;-90
2022/04/18 00:16:25;;;;;;;10.13;8.07;;;;;;;9.70;50.24;101910.22;5036900;28;20039;-90
2022/04/18 00:18:51;;;;;;;9.23;7.50;;;;;;;9.57;49.01;101902.56;5039399;28;20045;-91
2022/04/18 00:21:16;;;;;;;11.35;7.97;;;;;;;9.50;49.64;101908.84;5032868;28;20037;-89
2022/04/18 00:23:42;;;;;;;11.90;8.75;;;;;;;9.49;50.74;101902.69;5034310;28;20029;-91
2022/04/18 00:26:08;;;;;;;8.90;7.85;;;;;;;9.39;49.75;101909.06;5024600;28;20032;-91
2022/04/18 00:28:33;;;;;;;10.82;7.15;;;;;;;9.20;50.57;101901.47;5040571;28;20036;-89
2022/04/18 00:30:58;;;;;;;11.10;7.55;;;;;;;9.17;50.92;101903.28;5019165;28;20450;-90
2022/04/18 00:33:25;;;;;;;10.13;6.80;;;;;;;9.05;50.73;101896.47;5031964;28;20480;-90
2022/04/18 00:35:51;;;;;;;10.25;7.47;;;;;;;9.01;51.42;101891.25;5022273;28;20075;-90
2022/04/18 00:38:17;;;;;;;9.18;7.30;;;;;;;9.06;51.92;101900.81;5034393;28;20036;-90
2022/04/18 00:40:42;;;;;;;9.00;7.38;;;;;;;9.16;52.41;101902.41;5025565;28;20033;-91
2022/04/18 00:43:08;;;;;;;9.05;7.63;;;;;;;9.20;53.53;101897.94;5035030;28;20143;-91
2022/04/18 00:45:33;;;;;;;10.57;7.38;;;;;;;9.15;53.33;101899.81;5018712;28;20025;-89
2022/04/18 00:47:58;;;;;;;9.40;8.10;;;;;;;9.15;53.73;101890.13;5016894;28;20108;-91
2022/04/18 00:50:26;;;;;;;11.15;7.68;;;;;;;9.19;53.08;101894.44;5035588;28;20028;-91
2022/04/18 00:52:53;;;;;;;8.88;6.88;;;;;;;9.18;53.53;101894.44;5034992;28;20032;-91
2022/04/18 00:55:20;;;;;;;9.30;7.13;;;;;;;9.22;52.91;101905.81;5034570;28;20271;-92
2022/04/18 00:57:49;;;;;;;12.63;7.65;;;;;;;9.18;53.23;101892.69;5036330;28;20071;-91
2022/04/18 01:00:15;;;;;;;9.60;7.03;;;;;;;9.25;52.99;101895.22;5022906;28;20115;-91
2022/04/18 01:02:40;;;;;;;8.38;6.88;;;;;;;9.19;51.73;101891.81;5034891;28;20590;-91
2022/04/18 01:05:06;;;;;;;8.75;6.63;;;;;;;9.12;52.41;101887.53;5022345;28;20652;-91
2022/04/18 01:07:34;;;;;;;8.68;6.85;;;;;;;9.08;52.50;101888.47;5039041;28;20041;-89
2022/04/18 01:10:01;;;;;;;8.55;6.55;;;;;;;9.01;52.43;101894.75;5038288;28;20152;-92
2022/04/18 01:12:26;;;;;;;8.73;6.90;;;;;;;8.97;51.11;101892.19;5023937;28;20020;-89
2022/04/18 01:14:51;;;;;;;8.27;6.03;;;;;;;8.87;49.71;101879.16;5032644;28;20029;-91
2022/04/18 01:17:17;;;;;;;6.47;5.68;;;;;;;8.66;49.42;101884.75;5038099;28;20530;-91
2022/04/18 01:19:43;;;;;;;6.57;5.53;;;;;;;8.52;50.39;101894.66;5022586;28;20025;-90
2022/04/18 01:22:09;;;;;;;6.25;5.47;;;;;;;8.37;51.02;101895.75;5023882;28;20053;-91
2022/04/18 01:30:05;;;;;;;8.85;6.45;;;;;;;8.21;51.91;101881.91;5029523;28;20067;-90
2022/04/18 01:32:31;;;;;;;8.68;6.68;;;;;;;8.10;52.52;101894.31;5021794;28;20476;-90
2022/04/18 01:34:57;;;;;;;9.70;6.70;;;;;;;8.00;54.15;101893.56;5016598;28;20108;-91
2022/04/18 01:37:23;;;;;;;8.68;6.28;;;;;;;8.05;54.49;101882.97;5034534;28;20440;-91
2022/04/18 01:39:48;;;;;;;8.05;6.75;;;;;;;8.10;55.24;101889.06;5021130;28;20032;-90
2022/04/18 01:42:13;;;;;;;9.07;6.07;;;;;;;8.14;55.96;101891.63;5036859;28;20057;-90
2022/04/18 01:44:39;;;;;;;8.40;6.22;;;;;;;8.16;55.66;101892.50;5041574;28;20472;-91
2022/04/18 01:47:05;;;;;;;7.28;6.38;;;;;;;8.16;55.83;101887.22;5020701;28;20021;-91
2022/04/18 01:49:30;;;;;;;9.00;6.85;;;;;;;8.09;55.44;101896.09;5024025;28;20466;-91
2022/04/18 01:51:56;;;;;;;7.72;6.47;;;;;;;7.90;56.18;101889.31;5019086;28;20503;-92
2022/04/18 01:54:22;;;;;;;7.70;6.70;;;;;;;7.72;55.80;101886.91;5032653;28;20048;-91
2022/04/18 01:56:48;;;;;;;12.90;6.68;;;;;;;7.71;54.80;101880.75;5017798;28;20480;-89
2022/04/18 01:59:14;;;;;;;8.82;6.63;;;;;;;7.81;56.21;101882.38;5022235;28;20033;-91
2022/04/18 02:01:39;;;;;;;6.93;5.57;;;;;;;7.88;55.39;101884.06;5017216;28;20032;-90
2022/04/18 02:04:05;;;;;;;7.65;6.32;;;;;;;7.94;54.84;101883.13;5021949;28;20029;-91
2022/04/18 02:06:30;;;;;;;8.23;5.82;;;;;;;7.92;53.41;101869.09;5034647;28;20055;-91
2022/04/18 02:08:56;;;;;;;7.00;5.45;;;;;;;7.91;53.11;101875.25;5031887;28;20163;-90
2022/04/18 02:11:21;;;;;;;6.90;5.65;;;;;;;7.97;53.98;101869.88;5020955;28;20061;-90
2022/04/18 02:13:46;;;;;;;11.95;7.47;;;;;;;7.87;52.90;101870.91;5022739;28;20033;-91
2022/04/18 02:16:11;;;;;;;15.07;8.02;;;;;;;7.85;52.67;101873.56;5021060;28;20158;-90
2022/04/18 02:18:37;;;;;;;14.05;8.38;;;;;;;7.85;53.79;101875.34;5021833;28;20025;-90
2022/04/18 02:21:03;;;;;;;10.00;6.93;;;;;;;7.81;54.73;101868.34;5020062;28;20387;-91
2022/04/18 02:23:28;;;;;;;10.73;6.50;;;;;;;7.85;55.49;101865.66;5017231;28;20025;-92
2022/04/18 02:25:53;;;;;;;7.80;5.95;;;;;;;7.80;54.63;101856.97;5035350;28;20033;-91
2022/04/18 02:28:18;;;;;;;10.40;5.93;;;;;;;7.82;55.17;101856.94;5018023;28;20392;-90
2022/04/18 02:30:44;;;;;;;7.15;5.50;;;;;;;7.75;53.87;101863.19;5031607;28;20154;-90
2022/04/18 02:33:09;;;;;;;6.82;4.30;;;;;;;7.66;51.97;101866.78;5017525;28;20074;-91
2022/04/18 02:35:35;;;;;;;5.30;4.30;;;;;;;7.70;51.10;101865.00;5020935;28;20028;-90
2022/04/18 02:38:00;;;;;;;7.10;4.65;;;;;;;7.74;51.02;101864.03;5032756;28;20033;-89
2022/04/18 02:40:25;;;;;;;5.82;4.65;;;;;;;7.72;52.13;101856.19;5019718;28;20056;-89
2022/04/18 02:42:51;;;;;;;6.82;4.10;;;;;;;7.65;50.65;101851.88;5016936;28;20097;-88
2022/04/18 02:45:20;;;;;;;6.07;4.43;;;;;;;7.64;52.68;101853.63;5018032;28;21221;-91
2022/04/18 02:47:46;;;;;;;5.20;4.57;;;;;;;7.58;51.11;101848.44;5020442;28;20385;-90
2022/04/18 02:50:12;;;;;;;6.30;4.50;;;;;;;7.58;52.12;101848.44;5018090;28;20595;-90
2022/04/18 02:52:37;;;;;;;8.52;3.95;;;;;;;7.59;52.06;101852.81;5020460;28;20210;-91
2022/04/18 02:55:04;;;;;;;6.70;4.22;;;;;;;7.50;51.67;101839.75;5020265;28;20079;-90
2022/04/18 02:57:29;;;;;;;6.15;4.38;;;;;;;7.36;52.92;101833.78;5017191;28;20021;-92
2022/04/18 02:59:54;;;;;;;7.20;4.65;;;;;;;7.35;53.17;101845.19;5021479;28;20032;-91
2022/04/18 03:02:20;;;;;;;5.65;4.25;;;;;;;7.25;52.17;101826.00;5021573;28;20431;-92
2022/04/18 03:04:45;;;;;;;7.68;5.05;;;;;;;7.25;52.00;101833.03;5020645;28;20032;-89
2022/04/18 03:07:10;;;;;;;8.55;4.60;;;;;;;7.10;53.30;101836.69;5037801;28;20438;-91
2022/04/18 03:09:36;;;;;;;5.50;4.50;;;;;;;6.96;54.49;101830.69;5035094;28;20449;-89
2022/04/18 03:12:06;;;;;;;6.68;4.80;;;;;;;6.95;54.80;101828.94;5020368;28;20389;-92
2022/04/18 03:14:32;;;;;;;5.55;4.70;;;;;;;6.90;54.10;101818.47;5036662;28;20021;-91
2022/04/18 03:16:58;;;;;;;7.63;4.47;;;;;;;6.95;53.96;101829.84;5017564;28;20040;-91
2022/04/18 03:19:24;;;;;;;6.03;3.97;;;;;;;6.86;54.05;101824.66;5020395;28;20040;-91
2022/04/18 03:21:49;;;;;;;5.05;4.50;;;;;;;6.80;55.81;101816.81;5022795;28;20377;-92
2022/04/18 03:24:14;;;;;;;7.55;4.40;;;;;;;6.87;54.87;101815.88;5032425;28;20023;-90
2022/04/18 03:26:40;;;;;;;6.13;4.25;;;;;;;6.87;55.07;101826.41;5024031;28;20424;-89
2022/04/18 03:29:05;;;;;;;7.13;4.47;;;;;;;6.80;56.59;101819.44;5031664;28;20029;-91
2022/04/18 03:31:30;;;;;;;5.38;4.05;;;;;;;6.84;55.28;101815.91;5038019;28;20090;-92
2022/04/18 03:33:56;;;;;;;4.20;3.80;;;;;;;6.79;55.98;101822.97;5022903;28;20041;-91
2022/04/18 03:41:49;;;;;;;6.68;4.93;;;;;;;6.71;55.68;101817.75;5040271;28;20051;-91
2022/04/18 03:44:14;;;;;;;5.70;4.07;;;;;;;6.72;56.40;101823.91;5021601;28;20404;-91
2022/04/18 03:46:39;;;;;;;5.75;4.55;;;;;;;6.73;58.14;101823.03;5037456;28;20112;-92
2022/04/18 03:49:05;;;;;;;6.65;4.30;;;;;;;6.64;57.68;101831.84;5034544;28;20407;-92
2022/04/18 03:51:30;;;;;;;8.20;4.78;;;;;;;6.57;56.51;101820.50;5025030;28;20033;-90
2022/04/18 03:53:55;;;;;;;6.22;4.20;;;;;;;6.56;55.62;101834.53;5041373;28;20368;-93
2022/04/18 03:56:21;;;;;;;10.00;4.53;;;;;;;6.52;56.13;101824.91;5023860;28;20034;-93
2022/04/18 03:58:46;;;;;;;5.50;4.35;;;;;;;6.45;54.32;101817.97;5024298;28;20051;-92
2022/04/18 04:01:11;;;;;;;6.18;3.70;;;;;;;6.49;55.81;101817.06;5035322;28;20033;-91
2022/04/18 04:03:37;;;;;;;8.65;4.25;;;;;;;6.41;55.63;101813.63;5026559;28;20029;-91
2022/04/18 04:06:02;;;;;;;6.43;4.03;;;;;;;6.34;55.59;101819.78;5021308;28;20025;-90
2022/04/18 04:08:28;;;;;;;7.18;4.03;;;;;;;6.24;56.39;101815.50;5023135;28;20106;-92
2022/04/18 04:10:53;;;;;;;5.63;4.00;;;;;;;6.07;55.25;101820.88;5023294;28;20041;-91
2022/04/18 04:13:19;;;;;;;6.60;4.00;;;;;;;5.88;55.23;101817.44;5027236;28;20494;-90
2022/04/18 04:15:44;;;;;;;5.30;3.75;;;;;;;5.78;56.54;101818.34;5022569;28;20074;-92
2022/04/18 04:18:10;;;;;;;7.25;4.28;;;;;;;5.76;56.71;101827.97;5021538;28;20055;-93
2022/04/18 04:20:35;;;;;;;7.50;4.07;;;;;;;5.80;58.33;101816.59;5025590;28;20395;-92
2022/04/18 04:23:00;;;;;;;5.97;4.40;;;;;;;5.82;59.67;101806.94;5026075;28;20495;-90
2022/04/18 04:25:25;;;;;;;8.35;4.30;;;;;;;5.93;60.18;101817.44;5038816;28;20029;-92
2022/04/18 04:27:51;;;;;;;6.57;4.55;;;;;;;6.00;58.56;101820.00;5024561;28;20500;-90
2022/04/18 04:30:16;;;;;;;6.95;4.00;;;;;;;6.02;56.53;101814.78;5024455;28;20091;-92
2022/04/18 04:32:42;;;;;;;6.88;4.53;;;;;;;5.95;56.13;101820.91;5038222;28;20417;-89
2022/04/18 04:35:07;;;;;;;5.13;4.18;;;;;;;5.78;57.70;101821.88;5023425;28;20021;-92
2022/04/18 04:37:32;;;;;;;8.85;4.35;;;;;;;5.58;58.37;101814.06;5022135;28;20029;-90
2022/04/18 04:39:58;;;;;;;5.28;4.15;;;;;;;5.57;58.23;101816.69;5025171;28;20041;-92
2022/04/18 04:42:23;;;;;;;5.65;4.43;;;;;;;5.60;59.17;101803.56;5036530;28;20050;-91
2022/04/18 04:44:48;;;;;;;5.70;4.00;;;;;;;5.67;57.67;101814.91;5023406;28;20036;-92
2022/04/18 04:47:13;;;;;;;5.18;3.88;;;;;;;5.74;59.61;101819.25;5040268;28;20317;-91
2022/04/18 04:49:39;;;;;;;5.50;3.78;;;;;;;5.85;59.08;101818.31;5025028;28;20491;-91
2022/04/18 04:52:05;;;;;;;4.80;4.25;;;;;;;5.93;59.41;101828.81;5020544;28;20074;-92
2022/04/18 04:54:34;;;;;;;7.15;4.55;;;;;;;5.93;59.44;101823.56;5038807;28;20025;-91
2022/04/18 04:57:00;;;;;;;4.47;3.58;;;;;;;5.94;60.27;101825.31;5038198;28;20033;-92
2022/04/18 04:59:25;;;;;;;8.18;4.05;;;;;;;5.97;60.25;101829.66;5033540;28;20020;-92
2022/04/18 05:01:50;;;;;;;4.55;4.10;;;;;;;6.04;59.38;101837.50;5025555;28;20021;-91
2022/04/18 05:04:16;;;;;;;6.93;4.60;;;;;;;6.11;56.58;101833.97;5017628;28;20032;-92
2022/04/18 05:06:41;;;;;;;7.60;4.40;;;;;;;6.13;55.82;101832.19;5020442;28;20689;-91
2022/04/18 05:09:07;;;;;;;5.20;4.20;;;;;;;6.20;58.37;101834.78;5038476;28;20037;-89
2022/04/18 05:11:33;;;;;;;8.02;4.38;;;;;;;6.17;59.52;101834.81;5032668;28;20032;-91
2022/04/18 05:13:58;;;;;;;11.23;4.30;;;;;;;6.17;58.21;101835.69;5021890;28;20370;-90
2022/04/18 05:16:24;;;;;;;7.55;4.10;;;;;;;6.16;57.33;101836.56;5021652;28;20028;-92
2022/04/18 05:18:49;;;;;;;5.38;4.40;;;;;;;6.16;56.83;101839.19;5036747;28;20036;-92
2022/04/18 05:21:15;;;;;;;4.63;3.95;;;;;;;6.17;57.60;101832.19;5022377;28;20144;-93
2022/04/18 05:23:40;;;;;;;7.10;4.60;;;;;;;6.30;56.54;101841.72;5041994;28;20521;-92
2022/04/18 05:26:06;;;;;;;7.18;4.72;;;;;;;6.29;56.13;101826.84;5036688;28;20033;-92
2022/04/18 05:28:31;;;;;;;7.90;4.32;;;;;;;6.37;56.23;101833.78;5037102;28;20083;-91
2022/04/18 05:30:57;;;;;;;7.05;4.93;;;;;;;6.38;57.00;101826.78;5024312;28;20025;-91
2022/04/18 05:33:23;;;;;;;7.93;4.65;;;;;;;6.44;55.47;101831.13;5039840;28;20052;-90
2022/04/18 05:35:49;;;;;;;8.02;5.07;;;;;;;6.48;56.31;101836.34;5022301;28;20060;-92
2022/04/18 05:38:14;;;;;;;5.68;4.80;;;;;;;6.52;54.91;101839.81;5021308;28;20017;-92
2022/04/18 05:40:40;;;;;;;6.97;4.38;;;;;;;6.57;54.68;101835.38;5025216;28;20037;-92
2022/04/18 05:43:08;;;;;;;5.43;4.13;;;;;;;6.70;53.49;101844.94;5037165;28;20440;-92
2022/04/18 05:45:34;;;;;;;7.68;4.68;;;;;;;6.78;54.12;101835.22;5022929;28;20043;-91
2022/04/18 05:47:59;;;;;;;7.35;4.50;;;;;;;6.88;54.03;101839.50;5036980;28;20024;-92
2022/04/18 05:50:25;;;;;;;5.10;4.60;;;;;;;6.96;54.02;101836.81;5023322;28;20109;-92
2022/04/18 05:52:50;;;;;;;6.65;4.07;;;;;;;6.96;53.59;101821.06;5025181;28;20021;-92
2022/04/18 05:55:15;;;;;;;7.43;4.63;;;;;;;7.08;53.40;101844.56;5033189;28;20502;-91
2022/04/18 05:57:41;;;;;;;7.10;4.75;;;;;;;7.11;53.42;101831.41;5020355;28;20028;-92
2022/04/18 06:00:06;;;;;;;5.80;4.60;;;;;;;7.23;53.03;101830.44;5023550;28;20785;-92
2022/04/18 06:02:32;;;;;;;6.95;4.75;;;;;;;7.27;52.74;101821.59;5022581;28;20446;-90
2022/04/18 06:04:57;;;;;;;8.00;4.97;;;;;;;7.40;52.91;101838.13;5022950;28;20037;-91
2022/04/18 06:07:22;;;;;;;8.35;4.80;;;;;;;7.49;52.66;101826.63;5037062;28;20029;-89
2022/04/18 06:09:48;;;;;;;8.80;4.85;;;;;;;7.63;53.16;101835.22;5021220;28;20045;-91
2022/04/18 06:12:18;;;;;;;5.25;4.07;;;;;;;7.79;52.54;101847.31;5038212;28;20032;-90
2022/04/18 06:14:43;;;;;;;6.28;4.82;;;;;;;7.93;52.47;101837.50;5015614;28;20031;-91
2022/04/18 06:17:08;;;;;;;8.23;4.65;;;;;;;8.06;52.09;101842.56;5035742;28;20033;-92
2022/04/18 06:19:34;;;;;;;6.45;3.92;;;;;;;8.18;51.36;101851.19;5033724;28;20097;-91
2022/04/18 06:21:59;;;;;;;8.30;4.93;;;;;;;8.25;52.93;101846.69;5023083;28;20028;-90
2022/04/18 06:24:25;;;;;;;6.00;4.22;;;;;;;8.27;52.49;101829.09;5021269;28;20059;-90
2022/04/18 06:26:50;;;;;;;4.97;3.90;;;;;;;8.40;51.77;101841.25;5018065;28;20029;-90
2022/04/18 06:29:16;;;;;;;5.13;3.42;;;;;;;8.54;50.15;101838.41;5020824;28;20033;-91
2022/04/18 06:31:41;;;;;;;6.18;3.72;;;;;;;8.74;49.91;101847.75;5037638;28;20690;-90
2022/04/18 06:34:06;;;;;;;7.07;4.20;;;;;;;8.83;50.46;101844.97;5019825;28;20079;-89
2022/04/18 06:36:32;;;;;;;5.53;3.95;;;;;;;8.97;49.95;101842.94;5035378;28;20082;-88
2022/04/18 06:38:57;;;;;;;6.65;4.45;;;;;;;9.10;48.80;101849.75;5033402;28;20082;-89
2022/04/18 06:41:22;;;;;;;6.32;4.60;;;;;;;9.27;50.48;101856.47;5021267;28;20128;-89
2022/04/18 06:43:47;;;;;;;6.22;4.25;;;;;;;9.38;49.88;101847.47;5020235;28;20434;-89
2022/04/18 06:46:13;;;;;;;3.92;3.53;;;;;;;9.53;49.36;101853.38;5034907;28;20037;-89
2022/04/18 06:48:38;;;;;;;5.25;3.55;;;;;;;9.61;47.80;101847.03;5036388;28;20045;-89
2022/04/18 06:51:03;;;;;;;4.38;3.20;;;;;;;9.77;46.77;101850.22;5035179;28;20383;-89
2022/04/18 06:53:29;;;;;;;6.75;3.55;;;;;;;9.90;47.51;101840.28;5035837;28;20059;-90
2022/04/18 06:58:38;;;;;;;6.53;3.88;;;;;;;10.27;47.33;101844.78;5031548;28;20047;-88
2022/04/18 07:01:03;;;;;;;6.57;4.05;;;;;;;10.41;47.56;101840.91;5020440;28;20037;-89
2022/04/18 07:03:28;;;;;;;4.68;3.70;;;;;;;10.56;46.62;101836.16;5032663;28;20037;-89
2022/04/18 07:05:54;;;;;;;4.43;3.47;;;;;;;10.70;46.51;101837.56;5015609;28;20106;-89
2022/04/18 07:08:19;;;;;;;4.70;3.65;;;;;;;10.78;45.81;101831.22;5036606;28;20027;-89
2022/04/18 07:10:44;;;;;;;6.65;3.13;;;;;;;10.98;44.85;101840.38;5020510;28;20068;-89
2022/04/18 07:13:10;;;;;;;5.60;3.70;;;;;;;11.09;45.20;101833.94;5022432;28;20049;-88
2022/04/18 07:15:35;;;;;;;5.03;4.15;;;;;;;11.22;44.27;101824.75;5037838;28;20546;-88
2022/04/18 07:18:01;;;;;;;6.00;4.20;;;;;;;11.42;44.67;101834.78;5030115;28;20028;-88
2022/04/18 07:20:28;;;;;;;6.55;3.70;;;;;;;11.51;42.63;101845.13;5020903;28;20032;-89
2022/04/18 07:22:54;;;;;;;4.97;3.40;;;;;;;11.60;43.33;101836.94;5019414;28;20033;-88
2022/04/18 07:25:19;;;;;;;6.07;4.07;;;;;;;11.67;42.75;101833.22;5032112;28;20013;-89
2022/04/18 07:27:45;;;;;;;4.95;3.65;;;;;;;11.87;42.20;101837.09;5031599;28;20296;-88
2022/04/18 07:30:10;;;;;;;5.20;3.58;;;;;;;12.05;42.43;101838.31;5032107;28;20095;-88
2022/04/18 07:32:43;;;;;;;6.70;3.60;;;;;;;12.15;41.71;101842.44;5032610;28;20480;-89
2022/04/18 07:35:10;;;;;;;4.13;3.70;;;;;;;12.27;40.68;101830.59;5029697;28;20108;-88
2022/04/18 07:37:36;;;;;;;4.38;3.90;;;;;;;12.40;41.05;101822.19;5039674;28;20730;-89
2022/04/18 07:40:02;;;;;;;5.40;3.20;;;;;;;12.62;40.91;101825.00;5019270;28;20472;-88
2022/04/18 07:42:27;;;;;;;4.00;3.60;;;;;;;12.95;39.13;101825.66;5014630;28;20055;-89
2022/04/18 07:44:53;;;;;;;3.92;3.53;;;;;;;13.34;38.27;101829.69;5031632;28;20056;-89
2022/04/18 07:47:18;;;;;;;4.75;3.47;;;;;;;13.82;38.15;101828.78;5030552;28;20025;-89
2022/04/18 07:49:43;;;;;;;4.50;3.03;;;;;;;14.20;37.14;101825.50;5017621;28;20032;-89
2022/04/18 07:52:11;;;;;;;6.55;3.30;;;;;;;14.66;34.37;101826.34;5016052;28;20112;-89
2022/04/18 07:54:36;;;;;;;5.70;2.90;;;;;;;14.91;35.89;101818.16;5030251;28;20497;-89
2022/04/18 07:57:04;;;;;;;4.13;3.72;;;;;;;15.07;34.09;101813.06;5020518;28;20056;-89
2022/04/18 07:59:30;;;;;;;4.93;3.22;;;;;;;15.28;32.62;101806.78;5015378;28;20022;-88
2022/04/18 08:01:55;;;;;;;4.53;3.10;;;;;;;15.63;34.06;101815.00;5019796;28;20082;-88
2022/04/18 08:04:20;;;;;;;9.13;3.05;;;;;;;15.97;32.33;101811.66;5034304;28;20029;-89
2022/04/18 08:06:46;;;;;;;5.75;3.22;;;;;;;16.19;31.38;101803.50;5031795;28;20403;-89
2022/04/18 08:09:11;;;;;;;5.03;3.80;;;;;;;16.27;32.75;101808.47;5030206;28;20025;-88
2022/04/18 08:11:36;;;;;;;4.32;3.00;;;;;;;16.38;32.21;101805.28;5020760;28;20329;-89
2022/04/18 08:14:02;;;;;;;6.25;3.55;;;;;;;16.66;30.46;101816.31;5031353;28;20532;-88
2022/04/18 08:16:27;;;;;;;4.50;3.25;;;;;;;17.01;30.03;101821.69;5015774;28;20021;-89
2022/04/18 08:18:53;;;;;;;3.28;2.97;;;;;;;17.36;28.82;101816.34;5032943;28;20036;-90
2022/04/18 08:21:19;;;;;;;2.95;2.55;;;;;;;17.83;30.20;101803.09;5035813;28;20029;-89
2022/04/18 08:23:46;;;;;;;7.07;3.15;;;;;;;17.86;28.07;101813.66;5023357;28;20029;-89
2022/04/18 08:26:11;;;;;;;4.03;3.30;;;;;;;17.71;27.74;101803.72;5035495;28;20037;-89
2022/04/18 08:28:38;;;;;;;4.38;3.40;;;;;;;18.21;29.77;101814.34;5031830;28;20083;-90
2022/04/18 08:31:04;;;;;;;4.10;2.90;;;;;;;18.39;27.38;101814.25;5032230;28;20515;-89
2022/04/18 08:33:29;;;;;;;5.15;2.70;;;;;;;18.52;25.09;101810.78;5033819;28;20034;-90
2022/04/18 08:35:57;;;;;;;5.05;2.88;;;;;;;18.83;27.25;101806.31;5019126;28;20372;-89
2022/04/18 08:38:22;;;;;;;4.95;2.90;;;;;;;18.72;25.64;101798.06;5023460;28;20545;-89
2022/04/18 08:40:49;;;;;;;4.05;2.47;;;;;;;19.00;27.26;101813.34;5034578;28;20029;-89
2022/04/18 08:43:15;;;;;;;5.40;3.00;;;;;;;19.24;27.54;101814.53;5023252;28;20040;-90
2022/04/18 08:45:40;;;;;;;5.80;3.38;;;;;;;19.23;25.64;101810.16;5033419;28;20033;-89
2022/04/18 08:53:35;;;;;;;3.25;2.70;;;;;;;20.18;24.16;101804.16;5037985;28;20688;-89
2022/04/18 08:56:00;;;;;;;6.13;3.00;;;;;;;20.74;24.77;101806.78;5035458;28;20029;-90
2022/04/18 08:58:29;;;;;;;5.78;2.80;;;;;;;20.92;23.67;101815.41;5018569;28;20031;-89
2022/04/18 09:00:55;;;;;;;3.05;2.85;;;;;;;21.48;24.43;101813.34;5024912;28;20062;-89
2022/04/18 09:03:21;;;;;;;3.70;2.63;;;;;;;21.51;23.24;101808.59;5019675;28;20084;-90
2022/04/18 09:05:47;;;;;;;3.75;2.90;;;;;;;21.19;22.22;101807.28;5036169;28;20030;-89
2022/04/18 09:08:13;;;;;;;4.82;2.80;;;;;;;20.98;22.60;101801.53;5020511;28;20039;-91
2022/04/18 09:10:40;;;;;;;5.50;3.15;;;;;;;21.45;21.62;101808.16;5034652;28;20029;-89
2022/04/18 09:13:11;;;;;;;7.22;2.90;;;;;;;21.53;23.37;101811.19;5030917;28;20025;-89
2022/04/18 09:15:41;;;;;;;3.67;3.28;;;;;;;22.08;21.14;101807.22;5029233;28;20088;-89
2022/04/18 09:18:17;;;;;;;2.85;2.60;;;;;;;22.19;20.55;101795.66;5036124;28;20029;-91
2022/04/18 09:20:54;;;;;;;7.47;2.92;;;;;;;22.70;21.64;101793.59;5020415;28;20107;-90
2022/04/18 09:23:23;;;;;;;4.13;3.10;;;;;;;23.11;21.06;101803.91;5018278;28;20113;-90
2022/04/18 09:26:08;;;;;;;4.35;3.00;;;;;;;23.83;21.29;101806.34;5037276;28;20033;-90
2022/04/18 09:28:36;;;;;;;4.30;2.40;;;;;;;24.13;18.46;101786.75;5015987;28;20027;-89
2022/04/18 09:31:07;;;;;;;3.65;3.17;;;;;;;23.64;19.44;101796.16;5034430;28;20104;-89
2022/04/18 09:33:54;;;;;;;3.95;2.38;;;;;;;23.09;19.73;101788.84;5041927;28;20035;-90
2022/04/18 09:36:21;;;;;;;4.25;2.67;;;;;;;23.10;20.00;101793.25;5020043;28;20114;-89
2022/04/18 09:38:51;;;;;;;4.32;2.88;;;;;;;23.69;19.78;101795.81;5035303;28;20428;-89
2022/04/18 09:41:27;;;;;;;4.78;2.60;;;;;;;23.36;18.48;101794.78;5035493;28;20056;-88
2022/04/18 09:43:54;;;;;;;3.58;2.40;;;;;;;23.22;19.48;101784.19;5032157;28;20063;-89
2022/04/18 09:46:21;;;;;;;4.40;2.60;;;;;;;23.21;21.04;101785.16;5022708;28;20040;-89
2022/04/18 09:48:49;;;;;;;4.30;2.83;;;;;;;22.76;19.74;101786.88;5019512;28;20056;-89
2022/04/18 09:51:29;;;;;;;3.97;3.10;;;;;;;23.13;19.54;101784.94;5020843;28;20132;-89
2022/04/18 09:53:57;;;;;;;3.30;2.95;;;;;;;23.31;19.66;101785.31;5031812;28;20104;-89
2022/04/18 09:56:25;;;;;;;4.40;3.28;;;;;;;23.84;18.18;101781.06;5026009;28;20507;-89
2022/04/18 09:58:51;;;;;;;2.85;2.60;;;;;;;23.74;19.46;101774.69;5033505;28;20474;-89
2022/04/18 10:01:16;;;;;;;3.28;2.83;;;;;;;23.81;20.55;101767.78;5028256;28;20029;-90
2022/04/18 10:03:43;;;;;;;5.55;2.70;;;;;;;23.52;18.85;101769.25;5038984;28;20029;-90
2022/04/18 10:06:10;;;;;;;3.22;2.50;;;;;;;22.89;19.44;101769.66;5024213;28;20033;-89
2022/04/18 10:08:36;;;;;;;3.45;2.83;;;;;;;22.77;18.75;101762.50;5016705;28;20029;-89
2022/04/18 10:11:04;;;;;;;3.83;2.80;;;;;;;22.81;19.99;101772.06;5012604;28;20064;-89
2022/04/18 10:13:31;;;;;;;4.90;2.90;;;;;;;22.64;19.28;101761.72;5021932;28;20025;-90
2022/04/18 10:16:00;;;;;;;4.22;2.60;;;;;;;22.67;20.95;101769.59;5028217;28;20053;-88
2022/04/18 10:18:27;;;;;;;4.18;2.85;;;;;;;23.31;19.47;101766.41;5021871;28;20032;-89
2022/04/18 10:21:07;;;;;;;4.25;3.15;;;;;;;23.34;19.49;101764.34;5019889;28;20033;-90
2022/04/18 10:24:10;;;;;;;3.75;3.00;;;;;;;22.81;20.34;101747.81;5033978;28;20056;-90
2022/04/18 10:26:51;;;;;;;3.65;2.72;;;;;;;23.18;20.90;101750.38;5033214;28;20120;-89
2022/04/18 10:29:28;;;;;;;3.05;2.80;;;;;;;23.84;19.47;101750.50;5031500;28;20029;-89
2022/04/18 10:31:55;;;;;;;3.80;2.42;;;;;;;23.83;18.65;101749.63;5022919;28;20035;-89
2022/04/18 10:34:23;;;;;;;3.40;2.80;;;;;;;23.79;17.73;101755.41;5030309;28;20028;-89
2022/04/18 10:36:51;;;;;;;3.70;2.90;;;;;;;23.06;19.15;101738.69;5036416;28;20029;-89
2022/04/18 10:39:17;;;;;;;3.53;3.20;;;;;;;23.03;18.49;101746.16;5029694;28;20160;-89
2022/04/18 10:41:45;;;;;;;3.00;2.75;;;;;;;23.14;18.75;101741.66;5031257;28;20475;-89
2022/04/18 10:44:16;;;;;;;4.45;2.80;;;;;;;23.82;18.58;101729.00;5030895;28;20043;-90
2022/04/18 10:46:55;;;;;;;3.15;2.80;;;;;;;24.01;19.09;101733.72;5031420;28;20037;-89
2022/04/18 10:49:27;;;;;;;3.00;2.75;;;;;;;24.15;18.12;101743.38;5014034;28;20098;-89
2022/04/18 10:51:54;;;;;;;3.65;2.55;;;;;;;23.77;17.44;101730.34;5036607;28;20032;-91
2022/04/18 10:54:25;;;;;;;3.08;2.33;;;;;;;23.83;17.89;101733.44;5014280;28;21067;-90
2022/04/18 10:57:14;;;;;;;2.88;2.67;;;;;;;23.15;18.53;101726.31;5034312;28;20296;-90
2022/04/18 10:59:42;;;;;;;3.22;2.90;;;;;;;22.70;19.76;101728.88;5033129;28;20082;-90
2022/04/18 11:02:08;;;;;;;3.08;2.78;;;;;;;22.74;19.53;101729.50;5020535;28;20028;-89
2022/04/18 11:04:40;;;;;;;3.22;2.55;;;;;;;23.27;19.91;101727.16;5019727;28;20553;-89
2022/04/18 11:07:10;;;;;;;3.08;2.80;;;;;;;23.10;18.14;101723.97;5029709;28;20602;-90
2022/04/18 11:09:38;;;;;;;3.60;3.13;;;;;;;23.12;18.53;101721.16;5039102;28;20067;-90
2022/04/18 11:12:12;;;;;;;3.25;2.80;;;;;;;23.98;18.83;101719.66;5019561;28;20030;-90
2022/04/18 11:14:37;;;;;;;3.50;3.10;;;;;;;23.72;18.70;101725.34;5021690;28;20024;-90
2022/04/18 11:17:04;;;;;;;4.23;3.17;;;;;;;23.00;17.92;101720.28;5032326;28;20041;-91
2022/04/18 11:19:32;;;;;;;5.18;3.20;;;;;;;22.87;17.70;101712.25;5017463;28;20284;-90
2022/04/18 11:21:58;;;;;;;4.03;3.40;;;;;;;23.71;19.49;101711.97;5032028;28;20021;-89
2022/04/18 11:24:52;;;;;;;4.15;3.47;;;;;;;23.57;19.78;101713.06;5021751;28;20129;-90
2022/04/18 11:27:23;;;;;;;8.55;3.78;;;;;;;23.74;18.86;101714.44;5035423;28;20121;-89
2022/04/18 11:29:51;;;;;;;4.72;4.10;;;;;;;23.50;19.56;101718.09;5036469;28;20658;-90
2022/04/18 11:32:18;;;;;;;3.88;3.53;;;;;;;23.95;18.78;101706.38;5020097;28;20059;-90
2022/04/18 11:34:47;;;;;;;6.25;3.42;;;;;;;24.59;18.67;101711.81;5031991;28;20028;-90
2022/04/18 11:37:25;;;;;;;4.53;3.90;;;;;;;24.81;19.00;101705.41;5018708;28;20075;-90
2022/04/18 11:39:54;;;;;;;4.65;3.40;;;;;;;24.74;19.68;101705.06;5034661;28;20037;-90
2022/04/18 11:42:21;;;;;;;5.43;3.80;;;;;;;24.09;19.86;101697.97;5030064;28;20053;-91
2022/04/18 11:44:48;;;;;;;3.75;3.33;;;;;;;24.07;19.40;101702.66;5022167;28;20901;-91
2022/04/18 11:47:25;;;;;;;4.00;3.55;;;;;;;23.97;19.02;101709.78;5022259;28;20041;-89